sensor_id;sensor_type;location;lat;lon;timestamp;P1;durP1;ratioP1;P2;durP2;ratioP2
74670;SDS011;63196;39.564;2.628;2023-07-13T00:00:27;0.10;;;0.10;;
74670;SDS011;63196;39.564;2.628;2023-07-13T00:02:52;0.10;;;0.00;;
74670;SDS011;63196;39.564;2.628;2023-07-13T00:05:21;0.10;;;0.00;;
74670;SDS011;63196;39.564;2.628;2023-07-13T00:07:46;0.00;;;0.00;;
74670;SDS011;63196;39.564;2.628;2023-07-13T00:10:12;0.00;;;0.00;;
74670;SDS011;63196;39.564;2.628;2023-07-13T00:12:38;0.00;;;0.00;;
74670;SDS011;63196;39.564;2.628;2023-07-13T00:15:05;0.00;;;0.00;;
74670;SDS011;63196;39.564;2.628;2023-07-13T00:17:30;0.00;;;0.00;;
74670;SDS011;63196;39.564;2.628;2023-07-13T00:19:56;0.10;;;0.10;;
74670;SDS011;63196;39.564;2.628;2023-07-13T00:22:22;0.10;;;0.10;;
74670;SDS011;63196;39.564;2.628;2023-07-13T00:24:50;0.00;;;0.00;;
74670;SDS011;63196;39.564;2.628;2023-07-13T00:27:17;0.00;;;0.00;;
74670;SDS011;63196;39.564;2.628;2023-07-13T00:29:42;0.00;;;0.00;;
74670;SDS011;63196;39.564;2.628;2023-07-13T00:32:08;0.20;;;0.10;;
74670;SDS011;63196;39.564;2.628;2023-07-13T00:34:34;0.00;;;0.00;;
74670;SDS011;63196;39.564;2.628;2023-07-13T00:37:00;0.10;;;0.10;;
74670;SDS011;63196;39.564;2.628;2023-07-13T00:39:25;0.10;;;0.00;;
74670;SDS011;63196;39.564;2.628;2023-07-13T00:41:51;0.10;;;0.00;;
74670;SDS011;63196;39.564;2.628;2023-07-13T00:44:18;0.00;;;0.00;;
74670;SDS011;63196;39.564;2.628;2023-07-13T00:46:44;0.00;;;0.00;;
74670;SDS011;63196;39.564;2.628;2023-07-13T00:49:11;0.10;;;0.10;;
74670;SDS011;63196;39.564;2.628;2023-07-13T00:51:44;0.00;;;0.00;;
74670;SDS011;63196;39.564;2.628;2023-07-13T00:54:11;0.10;;;0.00;;
74670;SDS011;63196;39.564;2.628;2023-07-13T00:59:03;0.00;;;0.00;;
74670;SDS011;63196;39.564;2.628;2023-07-13T01:01:30;0.10;;;0.10;;
74670;SDS011;63196;39.564;2.628;2023-07-13T01:03:56;0.00;;;0.00;;
74670;SDS011;63196;39.564;2.628;2023-07-13T01:06:22;0.00;;;0.00;;
74670;SDS011;63196;39.564;2.628;2023-07-13T01:08:47;0.00;;;0.00;;
74670;SDS011;63196;39.564;2.628;2023-07-13T01:11:16;0.00;;;0.00;;
74670;SDS011;63196;39.564;2.628;2023-07-13T01:13:43;0.00;;;0.00;;
74670;SDS011;63196;39.564;2.628;2023-07-13T01:16:13;0.10;;;0.00;;
74670;SDS011;63196;39.564;2.628;2023-07-13T01:18:39;0.40;;;0.20;;
74670;SDS011;63196;39.564;2.628;2023-07-13T01:21:05;0.20;;;0.10;;
74670;SDS011;63196;39.564;2.628;2023-07-13T01:23:30;0.10;;;0.00;;
74670;SDS011;63196;39.564;2.628;2023-07-13T01:25:56;0.10;;;0.10;;
74670;SDS011;63196;39.564;2.628;2023-07-13T01:28:22;0.00;;;0.00;;
74670;SDS011;63196;39.564;2.628;2023-07-13T01:30:52;0.10;;;0.10;;
74670;SDS011;63196;39.564;2.628;2023-07-13T01:33:17;0.30;;;0.00;;
74670;SDS011;63196;39.564;2.628;2023-07-13T01:35:49;0.10;;;0.00;;
74670;SDS011;63196;39.564;2.628;2023-07-13T01:38:18;0.10;;;0.00;;
74670;SDS011;63196;39.564;2.628;2023-07-13T01:40:44;0.00;;;0.00;;
74670;SDS011;63196;39.564;2.628;2023-07-13T01:43:10;0.10;;;0.00;;
74670;SDS011;63196;39.564;2.628;2023-07-13T01:45:36;0.10;;;0.00;;
74670;SDS011;63196;39.564;2.628;2023-07-13T01:48:01;0.00;;;0.00;;
74670;SDS011;63196;39.564;2.628;2023-07-13T01:50:27;0.10;;;0.00;;
74670;SDS011;63196;39.564;2.628;2023-07-13T01:52:52;0.00;;;0.00;;
74670;SDS011;63196;39.564;2.628;2023-07-13T01:55:18;0.10;;;0.00;;
74670;SDS011;63196;39.564;2.628;2023-07-13T01:57:44;0.10;;;0.10;;
74670;SDS011;63196;39.564;2.628;2023-07-13T02:00:10;0.10;;;0.00;;
74670;SDS011;63196;39.564;2.628;2023-07-13T02:02:35;0.10;;;0.10;;
74670;SDS011;63196;39.564;2.628;2023-07-13T02:05:01;0.00;;;0.00;;
74670;SDS011;63196;39.564;2.628;2023-07-13T02:07:26;0.00;;;0.00;;
74670;SDS011;63196;39.564;2.628;2023-07-13T02:09:52;0.00;;;0.00;;
74670;SDS011;63196;39.564;2.628;2023-07-13T02:12:17;0.00;;;0.00;;
74670;SDS011;63196;39.564;2.628;2023-07-13T02:14:42;0.10;;;0.00;;
74670;SDS011;63196;39.564;2.628;2023-07-13T02:17:09;0.00;;;0.00;;
74670;SDS011;63196;39.564;2.628;2023-07-13T02:19:34;0.10;;;0.10;;
74670;SDS011;63196;39.564;2.628;2023-07-13T02:22:00;0.10;;;0.10;;
74670;SDS011;63196;39.564;2.628;2023-07-13T02:24:25;0.00;;;0.00;;
74670;SDS011;63196;39.564;2.628;2023-07-13T02:26:51;0.10;;;0.00;;
74670;SDS011;63196;39.564;2.628;2023-07-13T02:29:16;0.10;;;0.10;;
74670;SDS011;63196;39.564;2.628;2023-07-13T02:31:42;0.10;;;0.10;;
74670;SDS011;63196;39.564;2.628;2023-07-13T02:34:07;0.00;;;0.00;;
74670;SDS011;63196;39.564;2.628;2023-07-13T02:36:32;0.00;;;0.00;;
74670;SDS011;63196;39.564;2.628;2023-07-13T02:39:00;0.10;;;0.10;;
74670;SDS011;63196;39.564;2.628;2023-07-13T02:41:26;0.10;;;0.10;;
74670;SDS011;63196;39.564;2.628;2023-07-13T02:43:51;0.10;;;0.10;;
74670;SDS011;63196;39.564;2.628;2023-07-13T02:46:17;0.00;;;0.00;;
74670;SDS011;63196;39.564;2.628;2023-07-13T02:51:09;0.10;;;0.10;;
74670;SDS011;63196;39.564;2.628;2023-07-13T02:53:35;0.00;;;0.00;;
74670;SDS011;63196;39.564;2.628;2023-07-13T02:56:01;0.00;;;0.00;;
74670;SDS011;63196;39.564;2.628;2023-07-13T02:58:26;0.00;;;0.00;;
74670;SDS011;63196;39.564;2.628;2023-07-13T03:00:52;0.00;;;0.00;;
74670;SDS011;63196;39.564;2.628;2023-07-13T03:03:17;0.00;;;0.00;;
74670;SDS011;63196;39.564;2.628;2023-07-13T03:05:43;0.10;;;0.00;;
74670;SDS011;63196;39.564;2.628;2023-07-13T03:08:10;0.00;;;0.00;;
74670;SDS011;63196;39.564;2.628;2023-07-13T03:10:36;0.00;;;0.00;;
74670;SDS011;63196;39.564;2.628;2023-07-13T03:13:02;0.00;;;0.00;;
74670;SDS011;63196;39.564;2.628;2023-07-13T03:15:27;0.00;;;0.00;;
74670;SDS011;63196;39.564;2.628;2023-07-13T03:17:53;0.00;;;0.00;;
74670;SDS011;63196;39.564;2.628;2023-07-13T03:20:18;0.00;;;0.00;;
74670;SDS011;63196;39.564;2.628;2023-07-13T03:22:45;0.00;;;0.00;;
74670;SDS011;63196;39.564;2.628;2023-07-13T03:25:10;0.00;;;0.00;;
74670;SDS011;63196;39.564;2.628;2023-07-13T03:27:36;0.00;;;0.00;;
74670;SDS011;63196;39.564;2.628;2023-07-13T03:30:02;0.10;;;0.00;;
74670;SDS011;63196;39.564;2.628;2023-07-13T03:32:28;0.00;;;0.00;;
74670;SDS011;63196;39.564;2.628;2023-07-13T03:34:53;0.00;;;0.00;;
74670;SDS011;63196;39.564;2.628;2023-07-13T03:37:19;0.00;;;0.00;;
74670;SDS011;63196;39.564;2.628;2023-07-13T03:39:44;0.10;;;0.00;;
74670;SDS011;63196;39.564;2.628;2023-07-13T03:42:09;0.00;;;0.00;;
74670;SDS011;63196;39.564;2.628;2023-07-13T03:44:35;0.10;;;0.00;;
74670;SDS011;63196;39.564;2.628;2023-07-13T03:47:01;0.00;;;0.00;;
74670;SDS011;63196;39.564;2.628;2023-07-13T03:49:26;0.00;;;0.00;;
74670;SDS011;63196;39.564;2.628;2023-07-13T03:51:51;0.00;;;0.00;;
74670;SDS011;63196;39.564;2.628;2023-07-13T03:54:17;0.00;;;0.00;;
74670;SDS011;63196;39.564;2.628;2023-07-13T03:56:42;0.00;;;0.00;;
74670;SDS011;63196;39.564;2.628;2023-07-13T03:59:07;0.10;;;0.00;;
74670;SDS011;63196;39.564;2.628;2023-07-13T04:01:33;0.00;;;0.00;;
74670;SDS011;63196;39.564;2.628;2023-07-13T04:03:59;0.00;;;0.00;;
74670;SDS011;63196;39.564;2.628;2023-07-13T04:06:28;0.00;;;0.00;;
74670;SDS011;63196;39.564;2.628;2023-07-13T04:08:55;0.10;;;0.00;;
74670;SDS011;63196;39.564;2.628;2023-07-13T04:11:21;0.00;;;0.00;;
74670;SDS011;63196;39.564;2.628;2023-07-13T04:13:47;0.10;;;0.10;;
74670;SDS011;63196;39.564;2.628;2023-07-13T04:16:13;0.10;;;0.10;;
74670;SDS011;63196;39.564;2.628;2023-07-13T04:18:39;0.00;;;0.00;;
74670;SDS011;63196;39.564;2.628;2023-07-13T04:21:04;0.00;;;0.00;;
74670;SDS011;63196;39.564;2.628;2023-07-13T04:23:29;0.00;;;0.00;;
74670;SDS011;63196;39.564;2.628;2023-07-13T04:25:55;0.00;;;0.00;;
74670;SDS011;63196;39.564;2.628;2023-07-13T04:28:21;0.00;;;0.00;;
74670;SDS011;63196;39.564;2.628;2023-07-13T04:30:46;0.10;;;0.00;;
74670;SDS011;63196;39.564;2.628;2023-07-13T04:33:12;0.10;;;0.10;;
74670;SDS011;63196;39.564;2.628;2023-07-13T04:35:37;0.00;;;0.00;;
74670;SDS011;63196;39.564;2.628;2023-07-13T04:38:03;0.00;;;0.00;;
74670;SDS011;63196;39.564;2.628;2023-07-13T04:40:29;0.00;;;0.00;;
74670;SDS011;63196;39.564;2.628;2023-07-13T04:42:55;0.00;;;0.00;;
74670;SDS011;63196;39.564;2.628;2023-07-13T04:45:21;0.00;;;0.00;;
74670;SDS011;63196;39.564;2.628;2023-07-13T04:47:47;0.00;;;0.00;;
74670;SDS011;63196;39.564;2.628;2023-07-13T04:50:13;0.00;;;0.00;;
74670;SDS011;63196;39.564;2.628;2023-07-13T04:52:43;0.00;;;0.00;;
74670;SDS011;63196;39.564;2.628;2023-07-13T04:55:09;0.00;;;0.00;;
74670;SDS011;63196;39.564;2.628;2023-07-13T04:57:34;0.00;;;0.00;;
74670;SDS011;63196;39.564;2.628;2023-07-13T04:59:59;0.00;;;0.00;;
74670;SDS011;63196;39.564;2.628;2023-07-13T05:02:26;0.00;;;0.00;;
74670;SDS011;63196;39.564;2.628;2023-07-13T05:04:53;0.10;;;0.00;;
74670;SDS011;63196;39.564;2.628;2023-07-13T05:07:19;0.00;;;0.00;;
74670;SDS011;63196;39.564;2.628;2023-07-13T05:09:44;0.00;;;0.00;;
74670;SDS011;63196;39.564;2.628;2023-07-13T05:12:10;0.00;;;0.00;;
74670;SDS011;63196;39.564;2.628;2023-07-13T05:14:35;0.00;;;0.00;;
74670;SDS011;63196;39.564;2.628;2023-07-13T05:17:01;0.10;;;0.10;;
74670;SDS011;63196;39.564;2.628;2023-07-13T05:19:26;0.00;;;0.00;;
74670;SDS011;63196;39.564;2.628;2023-07-13T05:21:52;0.00;;;0.00;;
74670;SDS011;63196;39.564;2.628;2023-07-13T05:24:17;0.00;;;0.00;;
74670;SDS011;63196;39.564;2.628;2023-07-13T05:26:43;0.00;;;0.00;;
74670;SDS011;63196;39.564;2.628;2023-07-13T05:29:09;0.00;;;0.00;;
74670;SDS011;63196;39.564;2.628;2023-07-13T05:31:34;0.00;;;0.00;;
74670;SDS011;63196;39.564;2.628;2023-07-13T05:33:59;0.10;;;0.00;;
74670;SDS011;63196;39.564;2.628;2023-07-13T05:36:25;0.00;;;0.00;;
74670;SDS011;63196;39.564;2.628;2023-07-13T05:38:50;0.00;;;0.00;;
74670;SDS011;63196;39.564;2.628;2023-07-13T05:41:15;0.00;;;0.00;;
74670;SDS011;63196;39.564;2.628;2023-07-13T05:43:41;0.00;;;0.00;;
74670;SDS011;63196;39.564;2.628;2023-07-13T05:46:06;0.10;;;0.00;;
74670;SDS011;63196;39.564;2.628;2023-07-13T05:48:31;0.10;;;0.00;;
74670;SDS011;63196;39.564;2.628;2023-07-13T05:51:00;0.00;;;0.00;;
74670;SDS011;63196;39.564;2.628;2023-07-13T05:53:26;0.00;;;0.00;;
74670;SDS011;63196;39.564;2.628;2023-07-13T05:55:53;0.00;;;0.00;;
74670;SDS011;63196;39.564;2.628;2023-07-13T05:58:19;0.00;;;0.00;;
74670;SDS011;63196;39.564;2.628;2023-07-13T06:00:45;0.00;;;0.00;;
74670;SDS011;63196;39.564;2.628;2023-07-13T06:03:10;0.10;;;0.00;;
74670;SDS011;63196;39.564;2.628;2023-07-13T06:05:36;0.10;;;0.00;;
74670;SDS011;63196;39.564;2.628;2023-07-13T06:08:02;0.00;;;0.00;;
74670;SDS011;63196;39.564;2.628;2023-07-13T06:10:27;0.00;;;0.00;;
74670;SDS011;63196;39.564;2.628;2023-07-13T06:12:52;0.00;;;0.00;;
74670;SDS011;63196;39.564;2.628;2023-07-13T06:15:18;0.00;;;0.00;;
74670;SDS011;63196;39.564;2.628;2023-07-13T06:17:43;0.00;;;0.00;;
74670;SDS011;63196;39.564;2.628;2023-07-13T06:20:09;0.00;;;0.00;;
74670;SDS011;63196;39.564;2.628;2023-07-13T06:22:34;0.00;;;0.00;;
74670;SDS011;63196;39.564;2.628;2023-07-13T06:25:01;0.00;;;0.00;;
74670;SDS011;63196;39.564;2.628;2023-07-13T06:27:28;0.00;;;0.00;;
74670;SDS011;63196;39.564;2.628;2023-07-13T06:29:53;0.20;;;0.00;;
74670;SDS011;63196;39.564;2.628;2023-07-13T06:32:18;0.00;;;0.00;;
74670;SDS011;63196;39.564;2.628;2023-07-13T06:34:44;0.10;;;0.10;;
74670;SDS011;63196;39.564;2.628;2023-07-13T06:37:10;0.00;;;0.00;;
74670;SDS011;63196;39.564;2.628;2023-07-13T06:39:35;0.00;;;0.00;;
74670;SDS011;63196;39.564;2.628;2023-07-13T06:42:01;0.00;;;0.00;;
74670;SDS011;63196;39.564;2.628;2023-07-13T06:44:26;0.00;;;0.00;;
74670;SDS011;63196;39.564;2.628;2023-07-13T06:46:52;0.00;;;0.00;;
74670;SDS011;63196;39.564;2.628;2023-07-13T06:49:17;0.00;;;0.00;;
74670;SDS011;63196;39.564;2.628;2023-07-13T06:51:42;0.00;;;0.00;;
74670;SDS011;63196;39.564;2.628;2023-07-13T06:54:08;0.00;;;0.00;;
74670;SDS011;63196;39.564;2.628;2023-07-13T06:56:33;0.00;;;0.00;;
74670;SDS011;63196;39.564;2.628;2023-07-13T06:58:59;0.00;;;0.00;;
74670;SDS011;63196;39.564;2.628;2023-07-13T07:01:27;0.10;;;0.10;;
74670;SDS011;63196;39.564;2.628;2023-07-13T07:03:52;0.10;;;0.10;;
74670;SDS011;63196;39.564;2.628;2023-07-13T07:06:19;0.00;;;0.00;;
74670;SDS011;63196;39.564;2.628;2023-07-13T07:08:44;0.00;;;0.00;;
74670;SDS011;63196;39.564;2.628;2023-07-13T07:11:14;0.00;;;0.00;;
74670;SDS011;63196;39.564;2.628;2023-07-13T07:13:40;0.00;;;0.00;;
74670;SDS011;63196;39.564;2.628;2023-07-13T07:16:08;0.00;;;0.00;;
74670;SDS011;63196;39.564;2.628;2023-07-13T07:18:36;0.00;;;0.00;;
74670;SDS011;63196;39.564;2.628;2023-07-13T07:21:02;0.00;;;0.00;;
74670;SDS011;63196;39.564;2.628;2023-07-13T07:23:27;0.00;;;0.00;;
74670;SDS011;63196;39.564;2.628;2023-07-13T07:25:53;0.10;;;0.00;;
74670;SDS011;63196;39.564;2.628;2023-07-13T07:28:20;0.00;;;0.00;;
74670;SDS011;63196;39.564;2.628;2023-07-13T07:30:46;0.00;;;0.00;;
74670;SDS011;63196;39.564;2.628;2023-07-13T07:33:15;0.00;;;0.00;;
74670;SDS011;63196;39.564;2.628;2023-07-13T07:35:42;0.20;;;0.00;;
74670;SDS011;63196;39.564;2.628;2023-07-13T07:38:07;0.00;;;0.00;;
74670;SDS011;63196;39.564;2.628;2023-07-13T07:40:38;0.00;;;0.00;;
74670;SDS011;63196;39.564;2.628;2023-07-13T07:43:04;0.10;;;0.10;;
74670;SDS011;63196;39.564;2.628;2023-07-13T07:45:30;0.00;;;0.00;;
74670;SDS011;63196;39.564;2.628;2023-07-13T07:47:55;0.00;;;0.00;;
74670;SDS011;63196;39.564;2.628;2023-07-13T07:50:24;0.00;;;0.00;;
74670;SDS011;63196;39.564;2.628;2023-07-13T07:52:49;0.00;;;0.00;;
74670;SDS011;63196;39.564;2.628;2023-07-13T07:55:15;0.00;;;0.00;;
74670;SDS011;63196;39.564;2.628;2023-07-13T07:57:41;0.00;;;0.00;;
74670;SDS011;63196;39.564;2.628;2023-07-13T08:00:06;0.00;;;0.00;;
74670;SDS011;63196;39.564;2.628;2023-07-13T08:02:32;0.00;;;0.00;;
74670;SDS011;63196;39.564;2.628;2023-07-13T08:04:57;0.00;;;0.00;;
74670;SDS011;63196;39.564;2.628;2023-07-13T08:07:23;0.00;;;0.00;;
74670;SDS011;63196;39.564;2.628;2023-07-13T08:09:48;0.00;;;0.00;;
74670;SDS011;63196;39.564;2.628;2023-07-13T08:12:17;0.00;;;0.00;;
74670;SDS011;63196;39.564;2.628;2023-07-13T08:14:42;0.10;;;0.00;;
74670;SDS011;63196;39.564;2.628;2023-07-13T08:17:08;0.00;;;0.00;;
74670;SDS011;63196;39.564;2.628;2023-07-13T08:19:33;0.00;;;0.00;;
74670;SDS011;63196;39.564;2.628;2023-07-13T08:21:59;0.00;;;0.00;;
74670;SDS011;63196;39.564;2.628;2023-07-13T08:24:24;0.30;;;0.10;;
74670;SDS011;63196;39.564;2.628;2023-07-13T08:26:50;0.00;;;0.00;;
74670;SDS011;63196;39.564;2.628;2023-07-13T08:29:16;0.10;;;0.00;;
74670;SDS011;63196;39.564;2.628;2023-07-13T08:31:41;0.00;;;0.00;;
74670;SDS011;63196;39.564;2.628;2023-07-13T08:34:06;0.00;;;0.00;;
74670;SDS011;63196;39.564;2.628;2023-07-13T08:36:32;0.00;;;0.00;;
74670;SDS011;63196;39.564;2.628;2023-07-13T08:38:57;0.00;;;0.00;;
74670;SDS011;63196;39.564;2.628;2023-07-13T08:41:23;0.00;;;0.00;;
74670;SDS011;63196;39.564;2.628;2023-07-13T08:43:49;0.10;;;0.00;;
74670;SDS011;63196;39.564;2.628;2023-07-13T08:46:34;0.00;;;0.00;;
74670;SDS011;63196;39.564;2.628;2023-07-13T08:49:05;0.00;;;0.00;;
74670;SDS011;63196;39.564;2.628;2023-07-13T08:56:40;0.10;;;0.10;;
74670;SDS011;63196;39.564;2.628;2023-07-13T08:59:09;0.00;;;0.00;;
74670;SDS011;63196;39.564;2.628;2023-07-13T09:01:45;0.00;;;0.00;;
74670;SDS011;63196;39.564;2.628;2023-07-13T09:04:14;0.00;;;0.00;;
74670;SDS011;63196;39.564;2.628;2023-07-13T09:17:05;0.20;;;0.10;;
74670;SDS011;63196;39.564;2.628;2023-07-13T09:19:32;0.10;;;0.10;;
74670;SDS011;63196;39.564;2.628;2023-07-13T09:22:01;0.00;;;0.00;;
74670;SDS011;63196;39.564;2.628;2023-07-13T09:24:38;0.00;;;0.00;;
74670;SDS011;63196;39.564;2.628;2023-07-13T09:27:17;0.10;;;0.10;;
74670;SDS011;63196;39.564;2.628;2023-07-13T09:29:49;0.40;;;0.40;;
74670;SDS011;63196;39.564;2.628;2023-07-13T09:32:17;0.20;;;0.20;;
74670;SDS011;63196;39.564;2.628;2023-07-13T09:34:49;0.10;;;0.10;;
74670;SDS011;63196;39.564;2.628;2023-07-13T09:37:14;0.30;;;0.30;;
74670;SDS011;63196;39.564;2.628;2023-07-13T09:39:40;0.40;;;0.30;;
74670;SDS011;63196;39.564;2.628;2023-07-13T09:42:16;0.30;;;0.30;;
74670;SDS011;63196;39.564;2.628;2023-07-13T09:45:01;0.30;;;0.30;;
74670;SDS011;63196;39.564;2.628;2023-07-13T09:47:32;0.30;;;0.30;;
74670;SDS011;63196;39.564;2.628;2023-07-13T09:50:03;0.20;;;0.20;;
74670;SDS011;63196;39.564;2.628;2023-07-13T09:52:43;0.30;;;0.30;;
74670;SDS011;63196;39.564;2.628;2023-07-13T09:55:25;0.40;;;0.40;;
74670;SDS011;63196;39.564;2.628;2023-07-13T09:57:51;0.30;;;0.30;;
74670;SDS011;63196;39.564;2.628;2023-07-13T10:00:28;0.40;;;0.30;;
74670;SDS011;63196;39.564;2.628;2023-07-13T10:03:36;1.00;;;0.50;;
74670;SDS011;63196;39.564;2.628;2023-07-13T10:05:43;0.40;;;0.40;;
74670;SDS011;63196;39.564;2.628;2023-07-13T10:08:24;0.40;;;0.40;;
74670;SDS011;63196;39.564;2.628;2023-07-13T10:11:00;0.50;;;0.50;;
74670;SDS011;63196;39.564;2.628;2023-07-13T10:13:39;1.40;;;0.70;;
74670;SDS011;63196;39.564;2.628;2023-07-13T10:16:06;0.60;;;0.50;;
74670;SDS011;63196;39.564;2.628;2023-07-13T10:18:38;0.70;;;0.40;;
74670;SDS011;63196;39.564;2.628;2023-07-13T10:21:16;0.90;;;0.50;;
74670;SDS011;63196;39.564;2.628;2023-07-13T10:23:42;1.70;;;1.00;;
74670;SDS011;63196;39.564;2.628;2023-07-13T10:26:13;1.10;;;0.60;;
74670;SDS011;63196;39.564;2.628;2023-07-13T10:28:40;1.20;;;0.70;;
74670;SDS011;63196;39.564;2.628;2023-07-13T10:31:09;1.20;;;0.70;;
74670;SDS011;63196;39.564;2.628;2023-07-13T10:33:36;1.60;;;0.90;;
74670;SDS011;63196;39.564;2.628;2023-07-13T10:38:37;1.30;;;0.70;;
74670;SDS011;63196;39.564;2.628;2023-07-13T10:41:05;1.40;;;0.80;;
74670;SDS011;63196;39.564;2.628;2023-07-13T10:43:42;1.70;;;0.90;;
74670;SDS011;63196;39.564;2.628;2023-07-13T10:46:10;1.60;;;1.00;;
74670;SDS011;63196;39.564;2.628;2023-07-13T10:48:36;1.60;;;0.80;;
74670;SDS011;63196;39.564;2.628;2023-07-13T10:51:03;1.70;;;0.80;;
74670;SDS011;63196;39.564;2.628;2023-07-13T10:53:30;2.50;;;1.70;;
74670;SDS011;63196;39.564;2.628;2023-07-13T10:55:58;1.90;;;1.10;;
74670;SDS011;63196;39.564;2.628;2023-07-13T10:58:32;1.90;;;1.10;;
74670;SDS011;63196;39.564;2.628;2023-07-13T11:01:03;2.00;;;1.40;;
74670;SDS011;63196;39.564;2.628;2023-07-13T11:03:29;2.10;;;1.30;;
74670;SDS011;63196;39.564;2.628;2023-07-13T11:18:51;2.50;;;2.00;;
74670;SDS011;63196;39.564;2.628;2023-07-13T11:21:20;2.60;;;2.10;;
74670;SDS011;63196;39.564;2.628;2023-07-13T11:24:03;3.80;;;3.50;;
74670;SDS011;63196;39.564;2.628;2023-07-13T11:29:35;2.90;;;2.60;;
74670;SDS011;63196;39.564;2.628;2023-07-13T11:31:59;2.60;;;2.00;;
74670;SDS011;63196;39.564;2.628;2023-07-13T11:36:56;2.70;;;2.40;;
74670;SDS011;63196;39.564;2.628;2023-07-13T11:39:24;3.00;;;2.70;;
74670;SDS011;63196;39.564;2.628;2023-07-13T11:44:18;3.40;;;3.10;;
74670;SDS011;63196;39.564;2.628;2023-07-13T11:46:45;3.60;;;3.30;;
74670;SDS011;63196;39.564;2.628;2023-07-13T11:49:13;3.90;;;3.60;;
74670;SDS011;63196;39.564;2.628;2023-07-13T11:51:40;3.90;;;3.60;;
74670;SDS011;63196;39.564;2.628;2023-07-13T11:54:10;3.50;;;3.20;;
74670;SDS011;63196;39.564;2.628;2023-07-13T11:56:42;4.00;;;3.70;;
74670;SDS011;63196;39.564;2.628;2023-07-13T11:59:08;3.60;;;3.30;;
74670;SDS011;63196;39.564;2.628;2023-07-13T12:01:40;3.40;;;3.10;;
74670;SDS011;63196;39.564;2.628;2023-07-13T12:04:08;3.70;;;3.40;;
74670;SDS011;63196;39.564;2.628;2023-07-13T12:06:40;3.80;;;3.50;;
74670;SDS011;63196;39.564;2.628;2023-07-13T12:09:12;4.40;;;4.10;;
74670;SDS011;63196;39.564;2.628;2023-07-13T12:11:38;4.00;;;3.70;;
74670;SDS011;63196;39.564;2.628;2023-07-13T12:14:05;4.00;;;3.70;;
74670;SDS011;63196;39.564;2.628;2023-07-13T12:16:31;4.20;;;3.90;;
74670;SDS011;63196;39.564;2.628;2023-07-13T12:19:00;7.00;;;6.60;;
74670;SDS011;63196;39.564;2.628;2023-07-13T12:21:30;4.40;;;4.10;;
74670;SDS011;63196;39.564;2.628;2023-07-13T12:23:56;4.00;;;3.70;;
74670;SDS011;63196;39.564;2.628;2023-07-13T12:26:22;4.30;;;4.00;;
74670;SDS011;63196;39.564;2.628;2023-07-13T12:28:58;4.00;;;3.70;;
74670;SDS011;63196;39.564;2.628;2023-07-13T12:31:37;4.00;;;3.70;;
74670;SDS011;63196;39.564;2.628;2023-07-13T12:34:10;4.90;;;4.60;;
74670;SDS011;63196;39.564;2.628;2023-07-13T12:36:49;4.50;;;4.20;;
74670;SDS011;63196;39.564;2.628;2023-07-13T12:39:16;4.40;;;4.10;;
74670;SDS011;63196;39.564;2.628;2023-07-13T12:41:43;4.50;;;4.20;;
74670;SDS011;63196;39.564;2.628;2023-07-13T12:44:14;5.10;;;4.80;;
74670;SDS011;63196;39.564;2.628;2023-07-13T12:46:50;4.60;;;4.30;;
74670;SDS011;63196;39.564;2.628;2023-07-13T12:49:17;4.40;;;4.10;;
74670;SDS011;63196;39.564;2.628;2023-07-13T12:51:44;4.60;;;4.30;;
74670;SDS011;63196;39.564;2.628;2023-07-13T12:54:14;4.30;;;4.00;;
74670;SDS011;63196;39.564;2.628;2023-07-13T12:56:40;4.80;;;4.50;;
74670;SDS011;63196;39.564;2.628;2023-07-13T12:59:08;4.50;;;4.20;;
74670;SDS011;63196;39.564;2.628;2023-07-13T13:01:38;4.50;;;4.20;;
74670;SDS011;63196;39.564;2.628;2023-07-13T13:04:03;4.90;;;4.60;;
74670;SDS011;63196;39.564;2.628;2023-07-13T13:06:34;5.40;;;5.10;;
74670;SDS011;63196;39.564;2.628;2023-07-13T13:09:01;5.10;;;4.80;;
74670;SDS011;63196;39.564;2.628;2023-07-13T13:11:27;5.20;;;4.90;;
74670;SDS011;63196;39.564;2.628;2023-07-13T13:13:53;6.10;;;5.70;;
74670;SDS011;63196;39.564;2.628;2023-07-13T13:18:44;5.50;;;5.10;;
74670;SDS011;63196;39.564;2.628;2023-07-13T13:21:10;6.30;;;5.90;;
74670;SDS011;63196;39.564;2.628;2023-07-13T13:23:36;5.70;;;5.30;;
74670;SDS011;63196;39.564;2.628;2023-07-13T13:26:01;6.10;;;5.70;;
74670;SDS011;63196;39.564;2.628;2023-07-13T13:28:27;6.30;;;5.90;;
74670;SDS011;63196;39.564;2.628;2023-07-13T13:30:52;7.10;;;6.70;;
74670;SDS011;63196;39.564;2.628;2023-07-13T13:33:20;7.30;;;6.90;;
74670;SDS011;63196;39.564;2.628;2023-07-13T13:35:46;6.40;;;6.00;;
74670;SDS011;63196;39.564;2.628;2023-07-13T13:40:39;6.30;;;5.90;;
74670;SDS011;63196;39.564;2.628;2023-07-13T13:45:30;6.40;;;6.00;;
74670;SDS011;63196;39.564;2.628;2023-07-13T13:50:21;5.60;;;5.20;;
74670;SDS011;63196;39.564;2.628;2023-07-13T13:52:47;6.10;;;5.70;;
74670;SDS011;63196;39.564;2.628;2023-07-13T13:55:14;5.40;;;5.10;;
74670;SDS011;63196;39.564;2.628;2023-07-13T13:57:40;5.50;;;5.20;;
74670;SDS011;63196;39.564;2.628;2023-07-13T14:00:05;5.60;;;5.30;;
74670;SDS011;63196;39.564;2.628;2023-07-13T14:02:31;5.50;;;5.20;;
74670;SDS011;63196;39.564;2.628;2023-07-13T14:07:22;5.10;;;4.80;;
74670;SDS011;63196;39.564;2.628;2023-07-13T14:09:48;4.80;;;4.50;;
74670;SDS011;63196;39.564;2.628;2023-07-13T14:12:13;4.60;;;4.30;;
74670;SDS011;63196;39.564;2.628;2023-07-13T14:14:38;4.80;;;4.50;;
74670;SDS011;63196;39.564;2.628;2023-07-13T14:17:08;3.50;;;3.20;;
74670;SDS011;63196;39.564;2.628;2023-07-13T14:19:34;3.60;;;3.30;;
74670;SDS011;63196;39.564;2.628;2023-07-13T14:21:59;6.00;;;5.60;;
74670;SDS011;63196;39.564;2.628;2023-07-13T14:24:25;3.70;;;3.40;;
74670;SDS011;63196;39.564;2.628;2023-07-13T14:26:51;3.10;;;2.80;;
74670;SDS011;63196;39.564;2.628;2023-07-13T14:29:17;3.00;;;2.70;;
74670;SDS011;63196;39.564;2.628;2023-07-13T14:31:44;2.90;;;2.60;;
74670;SDS011;63196;39.564;2.628;2023-07-13T14:34:10;2.90;;;2.60;;
74670;SDS011;63196;39.564;2.628;2023-07-13T14:36:40;2.70;;;2.40;;
74670;SDS011;63196;39.564;2.628;2023-07-13T14:39:14;2.70;;;2.40;;
74670;SDS011;63196;39.564;2.628;2023-07-13T14:41:40;2.60;;;2.10;;
74670;SDS011;63196;39.564;2.628;2023-07-13T14:44:10;2.70;;;2.40;;
74670;SDS011;63196;39.564;2.628;2023-07-13T14:46:36;2.60;;;2.10;;
74670;SDS011;63196;39.564;2.628;2023-07-13T14:49:06;2.80;;;2.50;;
74670;SDS011;63196;39.564;2.628;2023-07-13T14:51:34;2.70;;;2.40;;
74670;SDS011;63196;39.564;2.628;2023-07-13T14:54:03;2.60;;;2.30;;
74670;SDS011;63196;39.564;2.628;2023-07-13T14:56:29;2.60;;;2.10;;
74670;SDS011;63196;39.564;2.628;2023-07-13T14:58:55;2.80;;;2.50;;
74670;SDS011;63196;39.564;2.628;2023-07-13T15:01:20;2.50;;;2.10;;
74670;SDS011;63196;39.564;2.628;2023-07-13T15:03:48;2.50;;;1.90;;
74670;SDS011;63196;39.564;2.628;2023-07-13T15:06:14;2.50;;;1.90;;
74670;SDS011;63196;39.564;2.628;2023-07-13T15:08:40;3.90;;;3.60;;
74670;SDS011;63196;39.564;2.628;2023-07-13T15:11:08;2.50;;;1.90;;
74670;SDS011;63196;39.564;2.628;2023-07-13T15:13:37;2.50;;;1.80;;
74670;SDS011;63196;39.564;2.628;2023-07-13T15:16:03;2.20;;;1.40;;
74670;SDS011;63196;39.564;2.628;2023-07-13T15:18:29;2.20;;;1.50;;
74670;SDS011;63196;39.564;2.628;2023-07-13T15:20:55;2.10;;;1.20;;
74670;SDS011;63196;39.564;2.628;2023-07-13T15:23:22;2.10;;;1.30;;
74670;SDS011;63196;39.564;2.628;2023-07-13T15:25:47;2.20;;;1.30;;
74670;SDS011;63196;39.564;2.628;2023-07-13T15:28:13;2.50;;;2.10;;
74670;SDS011;63196;39.564;2.628;2023-07-13T15:30:43;1.90;;;1.10;;
74670;SDS011;63196;39.564;2.628;2023-07-13T15:33:13;2.40;;;1.90;;
74670;SDS011;63196;39.564;2.628;2023-07-13T15:35:39;1.70;;;0.90;;
74670;SDS011;63196;39.564;2.628;2023-07-13T15:38:17;1.60;;;0.80;;
74670;SDS011;63196;39.564;2.628;2023-07-13T15:40:42;1.70;;;0.90;;
74670;SDS011;63196;39.564;2.628;2023-07-13T15:43:12;2.10;;;1.20;;